sensor_id;sensor_type;location;lat;lon;timestamp;pressure;altitude;pressure_sealevel;temperature;humidity
77454;BME280;66538;53.150;18.160;2024-02-16T00:01:02;101735.85;;;9.80;100.00
77454;BME280;66538;53.150;18.160;2024-02-16T00:03:35;101736.35;;;9.80;100.00
77454;BME280;66538;53.150;18.160;2024-02-16T00:06:01;101733.66;;;9.81;100.00
77454;BME280;66538;53.150;18.160;2024-02-16T00:08:28;101734.27;;;9.81;100.00
77454;BME280;66538;53.150;18.160;2024-02-16T00:10:55;101733.00;;;9.81;100.00
77454;BME280;66538;53.150;18.160;2024-02-16T00:13:22;101736.27;;;9.79;100.00
77454;BME280;66538;53.150;18.160;2024-02-16T00:15:49;101732.29;;;9.78;100.00
77454;BME280;66538;53.150;18.160;2024-02-16T00:18:16;101742.60;;;9.78;100.00
77454;BME280;66538;53.150;18.160;2024-02-16T00:20:43;101742.55;;;9.79;100.00
77454;BME280;66538;53.150;18.160;2024-02-16T00:23:10;101741.79;;;9.79;100.00
77454;BME280;66538;53.150;18.160;2024-02-16T00:25:37;101744.39;;;9.76;100.00
77454;BME280;66538;53.150;18.160;2024-02-16T00:28:06;101743.98;;;9.74;100.00
77454;BME280;66538;53.150;18.160;2024-02-16T00:30:33;101741.29;;;9.73;100.00
77454;BME280;66538;53.150;18.160;2024-02-16T00:33:00;101742.84;;;9.72;100.00
77454;BME280;66538;53.150;18.160;2024-02-16T00:35:27;101741.92;;;9.72;100.00
77454;BME280;66538;53.150;18.160;2024-02-16T00:37:54;101741.20;;;9.71;100.00
77454;BME280;66538;53.150;18.160;2024-02-16T00:40:21;101740.75;;;9.71;100.00
77454;BME280;66538;53.150;18.160;2024-02-16T00:42:49;101738.43;;;9.69;100.00
77454;BME280;66538;53.150;18.160;2024-02-16T00:45:16;101739.02;;;9.68;100.00
77454;BME280;66538;53.150;18.160;2024-02-16T00:47:43;101742.16;;;9.66;100.00
77454;BME280;66538;53.150;18.160;2024-02-16T00:50:12;101743.52;;;9.66;100.00
77454;BME280;66538;53.150;18.160;2024-02-16T00:52:39;101740.39;;;9.66;100.00
77454;BME280;66538;53.150;18.160;2024-02-16T00:55:06;101742.41;;;9.67;100.00
77454;BME280;66538;53.150;18.160;2024-02-16T00:57:33;101738.16;;;9.66;100.00
77454;BME280;66538;53.150;18.160;2024-02-16T01:00:01;101737.73;;;9.67;100.00
77454;BME280;66538;53.150;18.160;2024-02-16T01:02:29;101734.10;;;9.67;100.00
77454;BME280;66538;53.150;18.160;2024-02-16T01:04:58;101732.39;;;9.67;100.00
77454;BME280;66538;53.150;18.160;2024-02-16T01:07:28;101731.18;;;9.67;100.00
77454;BME280;66538;53.150;18.160;2024-02-16T01:09:55;101734.48;;;9.67;100.00
77454;BME280;66538;53.150;18.160;2024-02-16T01:12:23;101737.54;;;9.67;100.00
77454;BME280;66538;53.150;18.160;2024-02-16T01:14:49;101732.20;;;9.67;100.00
77454;BME280;66538;53.150;18.160;2024-02-16T01:17:16;101733.06;;;9.67;100.00
77454;BME280;66538;53.150;18.160;2024-02-16T01:19:43;101736.60;;;9.67;100.00
77454;BME280;66538;53.150;18.160;2024-02-16T01:22:10;101732.80;;;9.68;100.00
77454;BME280;66538;53.150;18.160;2024-02-16T01:24:36;101730.05;;;9.67;100.00
77454;BME280;66538;53.150;18.160;2024-02-16T01:27:03;101728.11;;;9.68;100.00
77454;BME280;66538;53.150;18.160;2024-02-16T01:29:30;101725.40;;;9.68;100.00
77454;BME280;66538;53.150;18.160;2024-02-16T01:31:59;101723.55;;;9.67;100.00
77454;BME280;66538;53.150;18.160;2024-02-16T01:34:25;101726.20;;;9.68;100.00
77454;BME280;66538;53.150;18.160;2024-02-16T01:36:52;101720.93;;;9.67;100.00
77454;BME280;66538;53.150;18.160;2024-02-16T01:39:19;101721.71;;;9.65;100.00
77454;BME280;66538;53.150;18.160;2024-02-16T01:41:45;101718.52;;;9.66;100.00
77454;BME280;66538;53.150;18.160;2024-02-16T01:44:12;101715.15;;;9.66;100.00
77454;BME280;66538;53.150;18.160;2024-02-16T01:46:39;101717.02;;;9.66;100.00
77454;BME280;66538;53.150;18.160;2024-02-16T01:49:06;101717.44;;;9.66;100.00
77454;BME280;66538;53.150;18.160;2024-02-16T01:51:35;101710.18;;;9.64;100.00
77454;BME280;66538;53.150;18.160;2024-02-16T01:54:01;101708.93;;;9.64;100.00
77454;BME280;66538;53.150;18.160;2024-02-16T01:56:28;101706.33;;;9.64;100.00
77454;BME280;66538;53.150;18.160;2024-02-16T01:58:55;101705.67;;;9.64;100.00
77454;BME280;66538;53.150;18.160;2024-02-16T02:01:22;101702.48;;;9.64;100.00
77454;BME280;66538;53.150;18.160;2024-02-16T02:03:49;101705.16;;;9.65;100.00
77454;BME280;66538;53.150;18.160;2024-02-16T02:06:16;101703.16;;;9.65;100.00
77454;BME280;66538;53.150;18.160;2024-02-16T02:08:42;101703.20;;;9.65;100.00
77454;BME280;66538;53.150;18.160;2024-02-16T02:11:09;101701.22;;;9.63;100.00
77454;BME280;66538;53.150;18.160;2024-02-16T02:13:35;101702.80;;;9.64;100.00
77454;BME280;66538;53.150;18.160;2024-02-16T02:16:04;101696.64;;;9.63;100.00
77454;BME280;66538;53.150;18.160;2024-02-16T02:18:32;101696.04;;;9.62;100.00
77454;BME280;66538;53.150;18.160;2024-02-16T02:20:59;101687.69;;;9.61;100.00
77454;BME280;66538;53.150;18.160;2024-02-16T02:23:25;101686.59;;;9.61;100.00
77454;BME280;66538;53.150;18.160;2024-02-16T02:25:52;101682.67;;;9.58;100.00
77454;BME280;66538;53.150;18.160;2024-02-16T02:28:19;101680.98;;;9.58;100.00
77454;BME280;66538;53.150;18.160;2024-02-16T02:30:46;101679.97;;;9.56;100.00
77454;BME280;66538;53.150;18.160;2024-02-16T02:33:13;101678.66;;;9.56;100.00
77454;BME280;66538;53.150;18.160;2024-02-16T02:35:40;101677.88;;;9.54;100.00
77454;BME280;66538;53.150;18.160;2024-02-16T02:38:06;101676.16;;;9.55;100.00
77454;BME280;66538;53.150;18.160;2024-02-16T02:40:33;101676.05;;;9.55;100.00
77454;BME280;66538;53.150;18.160;2024-02-16T02:43:00;101674.09;;;9.55;100.00
77454;BME280;66538;53.150;18.160;2024-02-16T02:45:27;101668.73;;;9.55;100.00
77454;BME280;66538;53.150;18.160;2024-02-16T02:47:53;101672.90;;;9.55;100.00
77454;BME280;66538;53.150;18.160;2024-02-16T02:50:20;101670.64;;;9.56;100.00
77454;BME280;66538;53.150;18.160;2024-02-16T02:52:46;101663.47;;;9.55;100.00
77454;BME280;66538;53.150;18.160;2024-02-16T02:55:13;101663.38;;;9.56;100.00
77454;BME280;66538;53.150;18.160;2024-02-16T02:57:40;101664.65;;;9.57;100.00
77454;BME280;66538;53.150;18.160;2024-02-16T03:00:07;101667.60;;;9.58;100.00
77454;BME280;66538;53.150;18.160;2024-02-16T03:02:38;101670.27;;;9.59;100.00
77454;BME280;66538;53.150;18.160;2024-02-16T03:05:08;101670.61;;;9.59;100.00
77454;BME280;66538;53.150;18.160;2024-02-16T03:07:35;101671.94;;;9.60;100.00
77454;BME280;66538;53.150;18.160;2024-02-16T03:10:03;101668.90;;;9.61;100.00
77454;BME280;66538;53.150;18.160;2024-02-16T03:12:31;101673.58;;;9.61;100.00
77454;BME280;66538;53.150;18.160;2024-02-16T03:14:58;101674.21;;;9.61;100.00
77454;BME280;66538;53.150;18.160;2024-02-16T03:17:25;101678.25;;;9.62;100.00
77454;BME280;66538;53.150;18.160;2024-02-16T03:19:51;101675.83;;;9.63;100.00
77454;BME280;66538;53.150;18.160;2024-02-16T03:22:18;101678.31;;;9.62;100.00
77454;BME280;66538;53.150;18.160;2024-02-16T03:24:45;101678.27;;;9.62;100.00
77454;BME280;66538;53.150;18.160;2024-02-16T03:27:11;101680.49;;;9.62;100.00
77454;BME280;66538;53.150;18.160;2024-02-16T03:29:38;101685.05;;;9.63;100.00
77454;BME280;66538;53.150;18.160;2024-02-16T03:32:06;101683.23;;;9.62;100.00
77454;BME280;66538;53.150;18.160;2024-02-16T03:34:32;101684.14;;;9.61;100.00
77454;BME280;66538;53.150;18.160;2024-02-16T03:36:59;101685.84;;;9.59;100.00
77454;BME280;66538;53.150;18.160;2024-02-16T03:39:25;101687.98;;;9.58;100.00
77454;BME280;66538;53.150;18.160;2024-02-16T03:41:52;101686.77;;;9.57;100.00
77454;BME280;66538;53.150;18.160;2024-02-16T03:44:19;101684.73;;;9.56;100.00
77454;BME280;66538;53.150;18.160;2024-02-16T03:46:46;101682.80;;;9.54;100.00
77454;BME280;66538;53.150;18.160;2024-02-16T03:49:12;101689.58;;;9.54;100.00
77454;BME280;66538;53.150;18.160;2024-02-16T03:51:42;101691.85;;;9.52;100.00
77454;BME280;66538;53.150;18.160;2024-02-16T03:54:08;101684.91;;;9.49;100.00
77454;BME280;66538;53.150;18.160;2024-02-16T03:56:35;101692.55;;;9.49;100.00
77454;BME280;66538;53.150;18.160;2024-02-16T03:59:02;101695.60;;;9.47;100.00
77454;BME280;66538;53.150;18.160;2024-02-16T04:01:31;101693.27;;;9.45;100.00
77454;BME280;66538;53.150;18.160;2024-02-16T04:03:57;101693.96;;;9.44;100.00
77454;BME280;66538;53.150;18.160;2024-02-16T04:06:24;101689.65;;;9.43;100.00
77454;BME280;66538;53.150;18.160;2024-02-16T04:08:51;101686.83;;;9.43;100.00
77454;BME280;66538;53.150;18.160;2024-02-16T04:11:17;101681.16;;;9.41;100.00
77454;BME280;66538;53.150;18.160;2024-02-16T04:13:44;101682.90;;;9.39;100.00
77454;BME280;66538;53.150;18.160;2024-02-16T04:16:11;101682.92;;;9.38;100.00
77454;BME280;66538;53.150;18.160;2024-02-16T04:18:37;101681.31;;;9.36;100.00
77454;BME280;66538;53.150;18.160;2024-02-16T04:21:04;101678.16;;;9.36;100.00
77454;BME280;66538;53.150;18.160;2024-02-16T04:23:32;101684.79;;;9.34;100.00
77454;BME280;66538;53.150;18.160;2024-02-16T04:25:58;101683.30;;;9.33;100.00
77454;BME280;66538;53.150;18.160;2024-02-16T04:28:25;101679.79;;;9.31;100.00
77454;BME280;66538;53.150;18.160;2024-02-16T04:30:52;101684.92;;;9.30;100.00
77454;BME280;66538;53.150;18.160;2024-02-16T04:33:18;101684.20;;;9.29;100.00
77454;BME280;66538;53.150;18.160;2024-02-16T04:35:45;101680.27;;;9.28;100.00
77454;BME280;66538;53.150;18.160;2024-02-16T04:38:14;101681.09;;;9.28;100.00
77454;BME280;66538;53.150;18.160;2024-02-16T04:40:41;101675.27;;;9.25;100.00
77454;BME280;66538;53.150;18.160;2024-02-16T04:43:07;101678.90;;;9.25;100.00
77454;BME280;66538;53.150;18.160;2024-02-16T04:45:35;101675.70;;;9.23;100.00
77454;BME280;66538;53.150;18.160;2024-02-16T04:48:03;101676.95;;;9.23;100.00
77454;BME280;66538;53.150;18.160;2024-02-16T04:50:32;101674.20;;;9.21;100.00
77454;BME280;66538;53.150;18.160;2024-02-16T04:52:59;101675.95;;;9.20;100.00
77454;BME280;66538;53.150;18.160;2024-02-16T04:55:27;101675.28;;;9.18;100.00
77454;BME280;66538;53.150;18.160;2024-02-16T04:57:55;101677.82;;;9.16;100.00
77454;BME280;66538;53.150;18.160;2024-02-16T05:00:22;101679.41;;;9.15;100.00
77454;BME280;66538;53.150;18.160;2024-02-16T05:02:50;101672.08;;;9.14;100.00
77454;BME280;66538;53.150;18.160;2024-02-16T05:05:17;101672.36;;;9.12;100.00
77454;BME280;66538;53.150;18.160;2024-02-16T05:07:48;101674.29;;;9.11;100.00
77454;BME280;66538;53.150;18.160;2024-02-16T05:10:16;101671.98;;;9.09;100.00
77454;BME280;66538;53.150;18.160;2024-02-16T05:12:43;101671.45;;;9.08;100.00
77454;BME280;66538;53.150;18.160;2024-02-16T05:15:09;101670.52;;;9.07;100.00
77454;BME280;66538;53.150;18.160;2024-02-16T05:17:36;101671.14;;;9.06;100.00
77454;BME280;66538;53.150;18.160;2024-02-16T05:20:05;101671.26;;;9.04;100.00
77454;BME280;66538;53.150;18.160;2024-02-16T05:22:36;101674.95;;;9.02;100.00
77454;BME280;66538;53.150;18.160;2024-02-16T05:25:03;101677.39;;;9.00;100.00
77454;BME280;66538;53.150;18.160;2024-02-16T05:27:29;101675.31;;;9.00;100.00
77454;BME280;66538;53.150;18.160;2024-02-16T05:29:56;101675.27;;;8.98;100.00
77454;BME280;66538;53.150;18.160;2024-02-16T05:32:23;101675.18;;;8.96;100.00
77454;BME280;66538;53.150;18.160;2024-02-16T05:34:49;101671.89;;;8.94;100.00
77454;BME280;66538;53.150;18.160;2024-02-16T05:37:16;101672.12;;;8.93;100.00
77454;BME280;66538;53.150;18.160;2024-02-16T05:39:42;101675.80;;;8.90;100.00
77454;BME280;66538;53.150;18.160;2024-02-16T05:42:34;101684.20;;;8.90;100.00
77454;BME280;66538;53.150;18.160;2024-02-16T05:45:01;101683.44;;;8.88;100.00
77454;BME280;66538;53.150;18.160;2024-02-16T05:47:28;101680.02;;;8.87;100.00
77454;BME280;66538;53.150;18.160;2024-02-16T05:49:55;101679.81;;;8.86;100.00
77454;BME280;66538;53.150;18.160;2024-02-16T05:52:22;101682.45;;;8.84;100.00
77454;BME280;66538;53.150;18.160;2024-02-16T05:54:49;101676.20;;;8.82;100.00
77454;BME280;66538;53.150;18.160;2024-02-16T05:57:16;101675.08;;;8.80;100.00
77454;BME280;66538;53.150;18.160;2024-02-16T05:59:44;101680.48;;;8.79;100.00
77454;BME280;66538;53.150;18.160;2024-02-16T06:02:12;101679.77;;;8.78;100.00
77454;BME280;66538;53.150;18.160;2024-02-16T06:04:39;101679.52;;;8.76;100.00
77454;BME280;66538;53.150;18.160;2024-02-16T06:07:06;101678.89;;;8.74;100.00
77454;BME280;66538;53.150;18.160;2024-02-16T06:09:33;101678.95;;;8.73;100.00
77454;BME280;66538;53.150;18.160;2024-02-16T06:12:01;101675.94;;;8.71;100.00
77454;BME280;66538;53.150;18.160;2024-02-16T06:14:31;101672.87;;;8.70;100.00
77454;BME280;66538;53.150;18.160;2024-02-16T06:16:57;101676.80;;;8.69;100.00
77454;BME280;66538;53.150;18.160;2024-02-16T06:19:25;101677.20;;;8.68;100.00
77454;BME280;66538;53.150;18.160;2024-02-16T06:21:54;101684.67;;;8.66;100.00
77454;BME280;66538;53.150;18.160;2024-02-16T06:24:24;101686.96;;;8.66;100.00
77454;BME280;66538;53.150;18.160;2024-02-16T06:26:51;101688.30;;;8.66;100.00
77454;BME280;66538;53.150;18.160;2024-02-16T06:29:18;101687.95;;;8.67;100.00
77454;BME280;66538;53.150;18.160;2024-02-16T06:31:47;101681.94;;;8.67;100.00
77454;BME280;66538;53.150;18.160;2024-02-16T06:34:15;101681.81;;;8.68;100.00
77454;BME280;66538;53.150;18.160;2024-02-16T06:36:42;101683.20;;;8.70;100.00
77454;BME280;66538;53.150;18.160;2024-02-16T06:39:09;101685.91;;;8.70;100.00
77454;BME280;66538;53.150;18.160;2024-02-16T06:41:43;101683.88;;;8.70;100.00
77454;BME280;66538;53.150;18.160;2024-02-16T06:44:12;101689.87;;;8.70;100.00
77454;BME280;66538;53.150;18.160;2024-02-16T06:46:40;101690.67;;;8.72;100.00
77454;BME280;66538;53.150;18.160;2024-02-16T06:49:06;101689.42;;;8.71;100.00
77454;BME280;66538;53.150;18.160;2024-02-16T06:51:33;101688.26;;;8.71;100.00
77454;BME280;66538;53.150;18.160;2024-02-16T06:54:00;101690.77;;;8.70;100.00
77454;BME280;66538;53.150;18.160;2024-02-16T06:56:27;101688.69;;;8.68;100.00
77454;BME280;66538;53.150;18.160;2024-02-16T06:58:53;101691.13;;;8.66;100.00
77454;BME280;66538;53.150;18.160;2024-02-16T07:01:20;101691.39;;;8.66;100.00
77454;BME280;66538;53.150;18.160;2024-02-16T07:03:47;101688.27;;;8.63;100.00
77454;BME280;66538;53.150;18.160;2024-02-16T07:06:14;101688.13;;;8.61;100.00
77454;BME280;66538;53.150;18.160;2024-02-16T07:08:41;101683.05;;;8.58;100.00
77454;BME280;66538;53.150;18.160;2024-02-16T07:11:09;101682.80;;;8.56;100.00
77454;BME280;66538;53.150;18.160;2024-02-16T07:13:38;101681.20;;;8.55;100.00
77454;BME280;66538;53.150;18.160;2024-02-16T07:16:06;101677.52;;;8.53;100.00
77454;BME280;66538;53.150;18.160;2024-02-16T07:18:36;101678.10;;;8.50;100.00
77454;BME280;66538;53.150;18.160;2024-02-16T07:21:03;101679.15;;;8.49;100.00
77454;BME280;66538;53.150;18.160;2024-02-16T07:23:30;101680.48;;;8.49;100.00
77454;BME280;66538;53.150;18.160;2024-02-16T07:25:56;101678.24;;;8.49;100.00
77454;BME280;66538;53.150;18.160;2024-02-16T07:28:25;101681.91;;;8.53;100.00
77454;BME280;66538;53.150;18.160;2024-02-16T07:30:52;101679.04;;;8.57;100.00
77454;BME280;66538;53.150;18.160;2024-02-16T07:33:19;101680.86;;;8.60;100.00
77454;BME280;66538;53.150;18.160;2024-02-16T07:35:47;101682.86;;;8.63;100.00
77454;BME280;66538;53.150;18.160;2024-02-16T07:38:14;101686.02;;;8.66;100.00
77454;BME280;66538;53.150;18.160;2024-02-16T07:40:40;101685.44;;;8.68;100.00
77454;BME280;66538;53.150;18.160;2024-02-16T07:43:07;101684.95;;;8.73;100.00
77454;BME280;66538;53.150;18.160;2024-02-16T07:45:34;101683.55;;;8.79;100.00
77454;BME280;66538;53.150;18.160;2024-02-16T07:48:01;101680.50;;;8.87;100.00
77454;BME280;66538;53.150;18.160;2024-02-16T07:50:31;101673.17;;;8.94;100.00
77454;BME280;66538;53.150;18.160;2024-02-16T07:52:58;101673.46;;;8.97;100.00
77454;BME280;66538;53.150;18.160;2024-02-16T07:55:25;101671.36;;;9.00;100.00
77454;BME280;66538;53.150;18.160;2024-02-16T07:57:51;101667.25;;;9.02;100.00
77454;BME280;66538;53.150;18.160;2024-02-16T08:00:18;101667.06;;;9.08;100.00
77454;BME280;66538;53.150;18.160;2024-02-16T08:02:45;101670.23;;;9.14;100.00
77454;BME280;66538;53.150;18.160;2024-02-16T08:05:12;101673.48;;;9.21;100.00
77454;BME280;66538;53.150;18.160;2024-02-16T08:07:40;101669.17;;;9.26;100.00
77454;BME280;66538;53.150;18.160;2024-02-16T08:10:09;101670.30;;;9.31;100.00
77454;BME280;66538;53.150;18.160;2024-02-16T08:12:36;101671.06;;;9.38;100.00
77454;BME280;66538;53.150;18.160;2024-02-16T08:15:03;101668.14;;;9.45;100.00
77454;BME280;66538;53.150;18.160;2024-02-16T08:17:34;101663.30;;;9.50;100.00
77454;BME280;66538;53.150;18.160;2024-02-16T08:20:02;101661.37;;;9.53;100.00
77454;BME280;66538;53.150;18.160;2024-02-16T08:22:29;101660.79;;;9.56;100.00
77454;BME280;66538;53.150;18.160;2024-02-16T08:24:55;101661.05;;;9.64;100.00
77454;BME280;66538;53.150;18.160;2024-02-16T08:27:22;101665.83;;;9.67;100.00
77454;BME280;66538;53.150;18.160;2024-02-16T08:29:49;101665.52;;;9.70;100.00
77454;BME280;66538;53.150;18.160;2024-02-16T08:32:16;101666.03;;;9.73;100.00
77454;BME280;66538;53.150;18.160;2024-02-16T08:34:43;101665.27;;;9.76;100.00
77454;BME280;66538;53.150;18.160;2024-02-16T08:37:10;101662.38;;;9.80;100.00
77454;BME280;66538;53.150;18.160;2024-02-16T08:39:38;101666.61;;;9.86;100.00
77454;BME280;66538;53.150;18.160;2024-02-16T08:42:05;101662.74;;;9.88;100.00
77454;BME280;66538;53.150;18.160;2024-02-16T08:44:31;101664.27;;;9.91;100.00
77454;BME280;66538;53.150;18.160;2024-02-16T08:46:58;101668.13;;;9.96;100.00
77454;BME280;66538;53.150;18.160;2024-02-16T08:49:25;101665.27;;;10.03;100.00
77454;BME280;66538;53.150;18.160;2024-02-16T08:51:51;101658.41;;;10.08;100.00
77454;BME280;66538;53.150;18.160;2024-02-16T08:54:18;101660.41;;;10.14;100.00
77454;BME280;66538;53.150;18.160;2024-02-16T08:56:45;101661.62;;;10.20;100.00
77454;BME280;66538;53.150;18.160;2024-02-16T08:59:12;101655.69;;;10.28;100.00
77454;BME280;66538;53.150;18.160;2024-02-16T09:01:38;101656.77;;;10.34;100.00
77454;BME280;66538;53.150;18.160;2024-02-16T09:04:07;101651.59;;;10.42;100.00
77454;BME280;66538;53.150;18.160;2024-02-16T09:06:34;101652.96;;;10.49;100.00
77454;BME280;66538;53.150;18.160;2024-02-16T09:09:01;101649.33;;;10.56;100.00
77454;BME280;66538;53.150;18.160;2024-02-16T09:11:28;101653.14;;;10.62;100.00
77454;BME280;66538;53.150;18.160;2024-02-16T09:13:55;101651.38;;;10.67;100.00
77454;BME280;66538;53.150;18.160;2024-02-16T09:16:22;101645.98;;;10.76;100.00
77454;BME280;66538;53.150;18.160;2024-02-16T09:18:48;101639.24;;;10.83;100.00
77454;BME280;66538;53.150;18.160;2024-02-16T09:21:15;101641.73;;;10.90;100.00
77454;BME280;66538;53.150;18.160;2024-02-16T09:23:42;101636.77;;;10.94;100.00
77454;BME280;66538;53.150;18.160;2024-02-16T09:26:08;101638.59;;;11.00;100.00
77454;BME280;66538;53.150;18.160;2024-02-16T09:28:40;101636.52;;;11.03;100.00
77454;BME280;66538;53.150;18.160;2024-02-16T09:31:14;101632.52;;;11.09;100.00
77454;BME280;66538;53.150;18.160;2024-02-16T09:33:41;101634.30;;;11.15;100.00
77454;BME280;66538;53.150;18.160;2024-02-16T09:36:07;101632.55;;;11.22;100.00
77454;BME280;66538;53.150;18.160;2024-02-16T09:38:34;101631.77;;;11.28;100.00
77454;BME280;66538;53.150;18.160;2024-02-16T09:41:01;101628.80;;;11.33;100.00
77454;BME280;66538;53.150;18.160;2024-02-16T09:43:29;101623.19;;;11.41;100.00
77454;BME280;66538;53.150;18.160;2024-02-16T09:45:57;101619.70;;;11.49;100.00
77454;BME280;66538;53.150;18.160;2024-02-16T09:48:25;101618.92;;;11.56;100.00
77454;BME280;66538;53.150;18.160;2024-02-16T09:50:55;101619.95;;;11.63;100.00
77454;BME280;66538;53.150;18.160;2024-02-16T09:53:25;101624.61;;;11.70;100.00
77454;BME280;66538;53.150;18.160;2024-02-16T09:55:53;101624.56;;;11.75;100.00
77454;BME280;66538;53.150;18.160;2024-02-16T09:58:20;101628.48;;;11.79;100.00
77454;BME280;66538;53.150;18.160;2024-02-16T10:00:51;101632.29;;;11.83;100.00
77454;BME280;66538;53.150;18.160;2024-02-16T10:03:29;101630.71;;;11.88;100.00
77454;BME280;66538;53.150;18.160;2024-02-16T10:06:10;101627.37;;;11.91;100.00
77454;BME280;66538;53.150;18.160;2024-02-16T10:11:18;101622.26;;;11.97;100.00
77454;BME280;66538;53.150;18.160;2024-02-16T10:13:59;101624.70;;;12.00;100.00
77454;BME280;66538;53.150;18.160;2024-02-16T10:16:26;101621.74;;;12.05;100.00
77454;BME280;66538;53.150;18.160;2024-02-16T10:19:05;101612.46;;;12.07;100.00
77454;BME280;66538;53.150;18.160;2024-02-16T10:21:33;101609.64;;;12.12;100.00
77454;BME280;66538;53.150;18.160;2024-02-16T10:24:05;101612.89;;;12.17;100.00
77454;BME280;66538;53.150;18.160;2024-02-16T10:26:35;101613.71;;;12.23;100.00
77454;BME280;66538;53.150;18.160;2024-02-16T10:29:07;101611.75;;;12.28;100.00
77454;BME280;66538;53.150;18.160;2024-02-16T10:31:34;101611.86;;;12.35;100.00
77454;BME280;66538;53.150;18.160;2024-02-16T10:34:03;101602.31;;;12.44;100.00
77454;BME280;66538;53.150;18.160;2024-02-16T10:36:36;101592.35;;;12.51;100.00
77454;BME280;66538;53.150;18.160;2024-02-16T10:39:05;101592.08;;;12.58;100.00
77454;BME280;66538;53.150;18.160;2024-02-16T10:41:34;101592.13;;;12.64;100.00
77454;BME280;66538;53.150;18.160;2024-02-16T10:44:02;101589.59;;;12.73;100.00
77454;BME280;66538;53.150;18.160;2024-02-16T10:46:30;101588.48;;;12.79;100.00
77454;BME280;66538;53.150;18.160;2024-02-16T10:48:58;101584.23;;;12.86;100.00
77454;BME280;66538;53.150;18.160;2024-02-16T10:51:40;101583.36;;;12.96;100.00
77454;BME280;66538;53.150;18.160;2024-02-16T10:54:09;101582.06;;;13.04;100.00
77454;BME280;66538;53.150;18.160;2024-02-16T10:56:39;101576.73;;;13.12;100.00
77454;BME280;66538;53.150;18.160;2024-02-16T10:59:10;101571.25;;;13.20;100.00
77454;BME280;66538;53.150;18.160;2024-02-16T11:01:44;101570.41;;;13.27;100.00
77454;BME280;66538;53.150;18.160;2024-02-16T11:04:13;101569.70;;;13.34;100.00
77454;BME280;66538;53.150;18.160;2024-02-16T11:06:53;101568.30;;;13.42;100.00
77454;BME280;66538;53.150;18.160;2024-02-16T11:09:28;101562.11;;;13.51;100.00
77454;BME280;66538;53.150;18.160;2024-02-16T11:11:59;101552.32;;;13.59;100.00
77454;BME280;66538;53.150;18.160;2024-02-16T11:14:46;101548.09;;;13.66;100.00
77454;BME280;66538;53.150;18.160;2024-02-16T11:17:15;101550.08;;;13.75;100.00
77454;BME280;66538;53.150;18.160;2024-02-16T11:19:47;101546.71;;;13.81;99.85
77454;BME280;66538;53.150;18.160;2024-02-16T11:22:18;101539.08;;;13.86;100.00
77454;BME280;66538;53.150;18.160;2024-02-16T11:24:46;101536.95;;;13.91;99.79
77454;BME280;66538;53.150;18.160;2024-02-16T11:27:13;101534.02;;;13.98;99.84
77454;BME280;66538;53.150;18.160;2024-02-16T11:29:48;101534.26;;;14.06;100.00
77454;BME280;66538;53.150;18.160;2024-02-16T11:32:15;101530.05;;;14.12;100.00
77454;BME280;66538;53.150;18.160;2024-02-16T11:34:42;101528.11;;;14.22;99.93
77454;BME280;66538;53.150;18.160;2024-02-16T11:37:08;101522.55;;;14.31;99.70
77454;BME280;66538;53.150;18.160;2024-02-16T11:39:35;101523.03;;;14.37;98.39
77454;BME280;66538;53.150;18.160;2024-02-16T11:42:04;101515.81;;;14.41;97.51
77454;BME280;66538;53.150;18.160;2024-02-16T11:44:33;101513.52;;;14.44;98.01
77454;BME280;66538;53.150;18.160;2024-02-16T11:47:00;101508.05;;;14.48;96.13
77454;BME280;66538;53.150;18.160;2024-02-16T11:49:29;101504.39;;;14.51;96.34
77454;BME280;66538;53.150;18.160;2024-02-16T11:51:56;101495.36;;;14.56;95.75
77454;BME280;66538;53.150;18.160;2024-02-16T11:54:23;101490.98;;;14.60;94.93
77454;BME280;66538;53.150;18.160;2024-02-16T11:56:51;101492.73;;;14.64;94.41
77454;BME280;66538;53.150;18.160;2024-02-16T11:59:18;101488.38;;;14.73;95.64
77454;BME280;66538;53.150;18.160;2024-02-16T12:01:57;101486.45;;;14.81;95.07
77454;BME280;66538;53.150;18.160;2024-02-16T12:04:26;101488.59;;;14.94;95.04
77454;BME280;66538;53.150;18.160;2024-02-16T12:06:55;101493.81;;;15.03;91.81
77454;BME280;66538;53.150;18.160;2024-02-16T12:09:23;101493.42;;;15.15;92.57
77454;BME280;66538;53.150;18.160;2024-02-16T12:11:52;101490.53;;;15.28;91.02
77454;BME280;66538;53.150;18.160;2024-02-16T12:14:22;101483.84;;;15.33;89.72
77454;BME280;66538;53.150;18.160;2024-02-16T12:16:55;101479.55;;;15.40;89.47
77454;BME280;66538;53.150;18.160;2024-02-16T12:19:22;101476.45;;;15.47;88.54
77454;BME280;66538;53.150;18.160;2024-02-16T12:21:51;101476.62;;;15.57;89.77
77454;BME280;66538;53.150;18.160;2024-02-16T12:24:19;101473.79;;;15.71;87.53
77454;BME280;66538;53.150;18.160;2024-02-16T12:26:46;101474.40;;;15.85;88.75
77454;BME280;66538;53.150;18.160;2024-02-16T12:29:13;101470.74;;;15.98;87.73
77454;BME280;66538;53.150;18.160;2024-02-16T12:31:41;101462.48;;;16.08;86.69
77454;BME280;66538;53.150;18.160;2024-02-16T12:34:08;101461.91;;;16.23;87.49
77454;BME280;66538;53.150;18.160;2024-02-16T12:36:39;101459.74;;;16.41;86.32
77454;BME280;66538;53.150;18.160;2024-02-16T12:39:09;101454.09;;;16.53;84.50
77454;BME280;66538;53.150;18.160;2024-02-16T12:41:38;101457.27;;;16.64;84.10
77454;BME280;66538;53.150;18.160;2024-02-16T12:44:05;101452.41;;;16.71;84.01